createdAt,value
2019-04-25T00:01:42.538Z,15.20
2019-04-25T00:04:13.466Z,15.20
2019-04-25T00:06:43.940Z,15.20
2019-04-25T00:09:16.482Z,15.20
2019-04-25T00:11:48.135Z,15.20
2019-04-25T00:14:19.094Z,15.20
2019-04-25T00:16:51.595Z,15.20
2019-04-25T00:19:21.974Z,15.30
2019-04-25T00:21:59.439Z,15.20
2019-04-25T00:24:32.054Z,15.20
2019-04-25T00:27:02.283Z,15.10
2019-04-25T00:29:32.334Z,15.10
2019-04-25T00:32:02.456Z,15.10
2019-04-25T00:34:33.681Z,15.10
2019-04-25T00:37:06.363Z,15.10
2019-04-25T00:39:36.419Z,15.00
2019-04-25T00:42:07.188Z,15.00
2019-04-25T00:44:37.303Z,15.00
2019-04-25T00:47:07.423Z,15.10
2019-04-25T00:49:38.627Z,15.10
2019-04-25T00:52:08.751Z,15.10
2019-04-25T00:54:38.810Z,15.10
2019-04-25T00:57:08.826Z,15.00
2019-04-25T00:59:43.007Z,14.90
2019-04-25T01:02:21.334Z,14.80
2019-04-25T01:04:52.046Z,14.90
2019-04-25T01:07:22.983Z,14.90
2019-04-25T01:09:53.616Z,14.90
2019-04-25T01:12:24.512Z,14.90
2019-04-25T01:14:54.762Z,14.90
2019-04-25T01:17:25.018Z,15.00
2019-04-25T01:19:57.753Z,15.00
2019-04-25T01:22:26.658Z,15.00
2019-04-25T01:24:56.674Z,14.90
2019-04-25T01:27:26.788Z,14.90
2019-04-25T01:29:56.902Z,14.90
2019-04-25T01:32:28.663Z,14.90
2019-04-25T01:35:04.034Z,14.80
2019-04-25T01:37:41.542Z,14.70
2019-04-25T01:40:16.067Z,14.80
2019-04-25T01:42:47.966Z,14.70
2019-04-25T01:45:18.548Z,14.70
2019-04-25T01:47:49.281Z,14.70
2019-04-25T01:50:20.087Z,14.70
2019-04-25T01:52:50.493Z,14.70
2019-04-25T01:55:20.598Z,14.70
2019-04-25T01:57:50.932Z,14.70
2019-04-25T02:00:23.624Z,14.70
2019-04-25T02:02:54.883Z,14.60
2019-04-25T02:05:25.546Z,14.70
2019-04-25T02:07:55.838Z,14.70
2019-04-25T02:10:26.027Z,14.60
2019-04-25T02:13:09.818Z,14.60
2019-04-25T02:15:39.876Z,14.60
2019-04-25T02:18:09.879Z,14.60
2019-04-25T02:20:39.923Z,14.60
2019-04-25T02:23:10.003Z,14.60
2019-04-25T02:25:40.115Z,14.50
2019-04-25T02:28:10.195Z,14.40
2019-04-25T02:30:40.314Z,14.30
2019-04-25T02:33:10.396Z,14.30
2019-04-25T02:35:43.194Z,14.30
2019-04-25T02:38:16.645Z,14.30
2019-04-25T02:40:45.378Z,14.40
2019-04-25T02:43:15.794Z,14.30
2019-04-25T02:45:58.464Z,14.30
2019-04-25T02:48:45.822Z,14.30
2019-04-25T02:51:20.347Z,14.40
2019-04-25T02:53:55.978Z,14.30
2019-04-25T02:56:34.081Z,14.20
2019-04-25T02:58:58.484Z,14.10
2019-04-25T03:01:28.608Z,14.10
2019-04-25T03:03:59.405Z,14.10
2019-04-25T03:06:29.906Z,14.20
2019-04-25T03:09:00.593Z,14.20
2019-04-25T03:11:34.652Z,14.30
2019-04-25T03:14:06.992Z,14.30
2019-04-25T03:16:36.645Z,14.30
2019-04-25T03:19:09.381Z,14.20
2019-04-25T03:21:45.174Z,14.20
2019-04-25T03:24:16.736Z,14.10
2019-04-25T03:26:47.083Z,14.10
2019-04-25T03:29:17.099Z,14.10
2019-04-25T03:31:47.146Z,14.10
2019-04-25T03:34:20.494Z,14.00
2019-04-25T03:36:48.914Z,14.00
2019-04-25T03:39:18.963Z,13.90
2019-04-25T03:41:49.023Z,13.80
2019-04-25T03:44:19.139Z,13.70
2019-04-25T03:46:49.147Z,13.70
2019-04-25T03:49:19.261Z,13.70
2019-04-25T03:51:49.203Z,13.80
2019-04-25T03:54:19.347Z,13.90
2019-04-25T03:56:53.477Z,13.90
2019-04-25T03:59:21.036Z,13.90
2019-04-25T04:01:51.046Z,13.90
2019-04-25T04:04:23.583Z,13.70
2019-04-25T04:06:53.893Z,13.80
2019-04-25T04:09:24.162Z,13.70
2019-04-25T04:11:54.287Z,13.60
2019-04-25T04:14:24.233Z,13.70
2019-04-25T04:17:14.700Z,13.70
2019-04-25T04:19:57.338Z,13.60
2019-04-25T04:22:37.726Z,13.60
2019-04-25T04:25:09.585Z,13.60
2019-04-25T04:27:39.518Z,13.60
2019-04-25T04:30:10.053Z,13.60
2019-04-25T04:32:40.234Z,13.60
2019-04-25T04:35:10.796Z,13.60
2019-04-25T04:37:40.891Z,13.60
2019-04-25T04:40:11.623Z,13.70
2019-04-25T04:42:43.424Z,13.70
2019-04-25T04:45:14.321Z,13.70
2019-04-25T04:47:45.463Z,13.60
2019-04-25T04:50:15.454Z,13.60
2019-04-25T04:52:45.512Z,13.60
2019-04-25T04:55:17.248Z,13.70
2019-04-25T04:57:47.255Z,13.60
2019-04-25T05:00:17.383Z,13.60
2019-04-25T05:02:55.034Z,13.60
2019-04-25T05:05:26.661Z,13.60
2019-04-25T05:08:01.210Z,13.60
2019-04-25T05:10:30.483Z,13.70
2019-04-25T05:13:00.399Z,13.70
2019-04-25T05:15:30.519Z,13.60
2019-04-25T05:18:00.632Z,13.70
2019-04-25T05:20:30.718Z,13.70
2019-04-25T05:23:00.706Z,13.70
2019-04-25T05:25:30.786Z,13.70
2019-04-25T05:28:03.111Z,13.70
2019-04-25T05:30:48.963Z,13.70
2019-04-25T05:33:21.183Z,13.80
2019-04-25T05:35:50.571Z,13.80
2019-04-25T05:38:20.544Z,13.90
2019-04-25T05:41:00.706Z,13.90
2019-04-25T05:43:30.691Z,13.90
2019-04-25T05:46:00.875Z,13.90
2019-04-25T05:48:30.991Z,13.90
2019-04-25T05:51:03.817Z,14.00
2019-04-25T05:53:33.927Z,14.00
2019-04-25T05:56:04.209Z,14.00
2019-04-25T05:58:34.626Z,14.00
2019-04-25T06:01:17.090Z,14.00
2019-04-25T06:03:47.171Z,14.10
2019-04-25T06:06:17.575Z,14.20
2019-04-25T06:08:49.279Z,14.30
2019-04-25T06:11:30.051Z,14.30
2019-04-25T06:14:02.967Z,14.30
2019-04-25T06:16:33.510Z,14.40
2019-04-25T06:19:14.187Z,14.40
2019-04-25T06:21:39.975Z,14.50
2019-04-25T06:24:25.803Z,14.60
2019-04-25T06:27:01.353Z,14.60
2019-04-25T06:29:34.534Z,14.60
2019-04-25T06:32:08.432Z,14.70
2019-04-25T06:34:36.617Z,14.80
2019-04-25T06:37:06.826Z,14.80
2019-04-25T06:39:36.962Z,14.90
2019-04-25T06:42:07.027Z,15.10
2019-04-25T06:44:44.474Z,15.10
2019-04-25T06:47:27.951Z,15.20
2019-04-25T06:49:57.995Z,15.30
2019-04-25T06:52:29.998Z,15.40
2019-04-25T06:54:59.599Z,15.50
2019-04-25T06:57:30.492Z,15.50
2019-04-25T07:00:00.471Z,15.60
2019-04-25T07:02:30.967Z,15.70
2019-04-25T07:05:01.018Z,15.70
2019-04-25T07:07:31.122Z,15.80
2019-04-25T07:10:01.084Z,16.00
2019-04-25T07:12:32.984Z,16.00
2019-04-25T07:15:04.754Z,16.10
2019-04-25T07:17:35.890Z,16.10
2019-04-25T07:20:09.043Z,16.20
2019-04-25T07:22:39.198Z,16.30
2019-04-25T07:25:13.092Z,16.40
2019-04-25T07:28:03.393Z,16.40
2019-04-25T07:30:52.665Z,16.50
2019-04-25T07:33:28.137Z,16.60
2019-04-25T07:36:00.012Z,16.70
2019-04-25T07:38:31.066Z,16.80
2019-04-25T07:41:01.232Z,16.90
2019-04-25T07:43:32.333Z,16.90
2019-04-25T07:46:03.491Z,17.00
2019-04-25T07:48:36.333Z,17.10
2019-04-25T07:51:05.323Z,17.20
2019-04-25T07:53:36.121Z,17.20
2019-04-25T07:56:06.267Z,17.30
2019-04-25T07:58:50.466Z,17.30
2019-04-25T08:01:16.682Z,17.40
2019-04-25T08:03:46.815Z,17.40
2019-04-25T08:06:17.011Z,17.40
2019-04-25T08:08:48.406Z,17.50
2019-04-25T08:11:18.560Z,17.60
2019-04-25T08:13:53.435Z,17.60
2019-04-25T08:16:28.865Z,17.70
2019-04-25T08:19:01.327Z,17.80
2019-04-25T08:21:34.059Z,17.80
2019-04-25T08:24:04.752Z,17.80
2019-04-25T08:26:36.193Z,17.90
2019-04-25T08:29:06.526Z,18.00
2019-04-25T08:31:37.690Z,18.00
2019-04-25T08:34:07.864Z,18.10
2019-04-25T08:36:38.661Z,18.10
2019-04-25T08:39:11.331Z,18.20
2019-04-25T08:41:41.458Z,18.20
2019-04-25T08:44:11.542Z,18.30
2019-04-25T08:46:41.727Z,18.40
2019-04-25T08:49:19.313Z,18.50
2019-04-25T08:51:51.268Z,18.50
2019-04-25T08:54:25.703Z,18.50
2019-04-25T08:56:56.577Z,18.50
2019-04-25T08:59:52.044Z,18.40
2019-04-25T09:02:18.300Z,18.60
2019-04-25T09:04:56.079Z,18.70
2019-04-25T09:07:26.336Z,18.80
2019-04-25T09:09:56.391Z,18.90
2019-04-25T09:12:27.507Z,19.10
2019-04-25T09:14:57.524Z,19.10
2019-04-25T09:17:27.500Z,19.20
2019-04-25T09:19:57.580Z,19.20
2019-04-25T09:22:27.700Z,19.20
2019-04-25T09:24:57.918Z,19.30
2019-04-25T09:27:27.935Z,19.30
2019-04-25T09:29:57.915Z,19.40
2019-04-25T09:32:27.851Z,19.40
2019-04-25T09:34:57.915Z,19.50
2019-04-25T09:37:27.951Z,19.70
2019-04-25T09:39:59.626Z,19.90
2019-04-25T09:42:29.566Z,20.00
2019-04-25T09:45:17.428Z,20.10
2019-04-25T09:47:49.150Z,20.10
2019-04-25T09:50:23.789Z,20.20
2019-04-25T09:52:53.953Z,20.20
2019-04-25T09:55:28.279Z,20.30
2019-04-25T09:58:04.138Z,20.50
2019-04-25T10:00:36.542Z,20.50
2019-04-25T10:03:06.670Z,20.60
2019-04-25T10:05:37.142Z,20.50
2019-04-25T10:08:07.194Z,20.40
2019-04-25T10:10:38.000Z,20.30
2019-04-25T10:13:09.875Z,20.30
2019-04-25T10:15:56.890Z,20.40
2019-04-25T10:18:26.978Z,20.40
2019-04-25T10:20:57.116Z,20.40
2019-04-25T10:23:27.298Z,20.50
2019-04-25T10:25:57.484Z,20.60
2019-04-25T10:28:27.987Z,20.50
2019-04-25T10:30:58.134Z,20.60
2019-04-25T10:33:28.271Z,20.70
2019-04-25T10:35:59.477Z,20.90
2019-04-25T10:38:30.837Z,21.20
2019-04-25T10:41:00.885Z,21.10
2019-04-25T10:43:31.184Z,21.20
2019-04-25T10:46:01.319Z,21.20
2019-04-25T10:48:31.593Z,21.20
2019-04-25T10:51:01.619Z,21.30
2019-04-25T10:53:34.494Z,21.40
2019-04-25T10:56:05.952Z,21.50
2019-04-25T10:58:36.204Z,21.50
2019-04-25T11:01:07.783Z,21.60
2019-04-25T11:03:55.821Z,21.50
2019-04-25T11:06:27.778Z,21.50
2019-04-25T11:08:58.122Z,21.60
2019-04-25T11:11:28.247Z,21.70
2019-04-25T11:13:58.445Z,21.70
2019-04-25T11:16:28.535Z,21.80
2019-04-25T11:18:58.712Z,22.00
2019-04-25T11:21:28.802Z,22.10
2019-04-25T11:23:58.875Z,22.20
2019-04-25T11:26:28.959Z,22.20
2019-04-25T11:29:00.091Z,22.30
2019-04-25T11:31:33.540Z,22.20
2019-04-25T11:34:04.803Z,22.10
2019-04-25T11:36:34.922Z,22.10
2019-04-25T11:39:23.911Z,22.00
2019-04-25T11:41:55.562Z,21.90
2019-04-25T11:44:25.719Z,21.80
2019-04-25T11:46:55.910Z,21.90
2019-04-25T11:49:34.031Z,22.30
2019-04-25T11:52:05.241Z,22.50
2019-04-25T11:54:35.350Z,22.00
2019-04-25T11:57:06.358Z,21.70
2019-04-25T11:59:36.452Z,21.40
2019-04-25T12:02:08.214Z,21.30
2019-04-25T12:04:38.335Z,21.20
2019-04-25T12:07:09.520Z,21.10
2019-04-25T12:09:39.525Z,21.10
2019-04-25T12:12:09.570Z,21.00
2019-04-25T12:14:39.623Z,20.90
2019-04-25T12:17:09.696Z,20.90
2019-04-25T12:19:39.811Z,20.80
2019-04-25T12:22:09.928Z,20.80
2019-04-25T12:24:40.055Z,20.80
2019-04-25T12:27:10.206Z,20.70
2019-04-25T12:29:40.330Z,20.70
2019-04-25T12:32:10.459Z,20.60
2019-04-25T12:34:40.502Z,20.60
2019-04-25T12:37:10.643Z,20.50
2019-04-25T12:39:40.687Z,20.40
2019-04-25T12:42:10.742Z,20.40
2019-04-25T12:44:43.477Z,20.30
2019-04-25T12:47:15.650Z,20.30
2019-04-25T12:49:46.658Z,20.30
2019-04-25T12:52:16.808Z,20.20
2019-04-25T12:54:47.549Z,20.30
2019-04-25T12:57:18.953Z,20.30
2019-04-25T12:59:49.193Z,20.30
2019-04-25T13:02:20.796Z,20.30
2019-04-25T13:04:50.811Z,20.30
2019-04-25T13:07:20.877Z,20.30
2019-04-25T13:09:52.226Z,20.30
2019-04-25T13:12:23.448Z,20.30
2019-04-25T13:14:53.590Z,20.30
2019-04-25T13:17:24.162Z,20.20
2019-04-25T13:19:54.434Z,20.20
2019-04-25T13:22:25.658Z,20.10
2019-04-25T13:24:56.307Z,20.10
2019-04-25T13:27:42.583Z,20.00
2019-04-25T13:30:30.262Z,20.00
2019-04-25T13:33:01.970Z,20.00
2019-04-25T13:35:36.667Z,20.00
2019-04-25T13:38:06.866Z,19.90
2019-04-25T13:40:37.055Z,19.90
2019-04-25T13:43:07.753Z,19.90
2019-04-25T13:45:37.794Z,19.80
2019-04-25T13:48:08.030Z,19.80
2019-04-25T13:50:37.978Z,19.80
2019-04-25T13:53:08.099Z,19.80
2019-04-25T13:55:38.162Z,19.70
2019-04-25T13:58:09.214Z,19.70
2019-04-25T14:00:39.403Z,19.60
2019-04-25T14:03:09.563Z,19.60
2019-04-25T14:05:40.523Z,19.60
2019-04-25T14:08:10.632Z,19.50
2019-04-25T14:10:40.580Z,19.50
2019-04-25T14:13:10.631Z,19.40
2019-04-25T14:15:43.109Z,19.30
2019-04-25T14:18:31.550Z,19.30
2019-04-25T14:21:03.530Z,19.20
2019-04-25T14:23:36.388Z,19.10
2019-04-25T14:26:07.287Z,18.90
2019-04-25T14:28:37.380Z,18.90
2019-04-25T14:31:09.127Z,18.80
2019-04-25T14:33:39.261Z,18.80
2019-04-25T14:36:09.407Z,18.80
2019-04-25T14:38:39.544Z,18.70
2019-04-25T14:41:10.362Z,18.70
2019-04-25T14:43:40.399Z,18.70
2019-04-25T14:46:10.647Z,18.70
2019-04-25T14:48:40.786Z,18.60
2019-04-25T14:51:10.949Z,18.60
2019-04-25T14:53:41.059Z,18.60
2019-04-25T14:56:29.053Z,18.50
2019-04-25T14:58:59.110Z,18.50
2019-04-25T15:01:30.182Z,18.40
2019-04-25T15:04:00.339Z,18.30
2019-04-25T15:06:30.331Z,18.20
2019-04-25T15:09:00.314Z,18.20
2019-04-25T15:11:31.485Z,18.20
2019-04-25T15:14:01.579Z,18.10
2019-04-25T15:16:31.764Z,18.10
2019-04-25T15:19:01.859Z,18.00
2019-04-25T15:21:31.937Z,17.90
2019-04-25T15:24:01.986Z,17.90
2019-04-25T15:26:33.519Z,17.90
2019-04-25T15:29:03.527Z,17.90
2019-04-25T15:31:33.662Z,17.80
2019-04-25T15:34:03.736Z,17.80
2019-04-25T15:36:35.646Z,17.80
2019-04-25T15:39:26.165Z,17.80
2019-04-25T15:42:00.622Z,17.80
2019-04-25T15:44:40.783Z,17.70
2019-04-25T15:47:12.243Z,17.60
2019-04-25T15:49:42.933Z,17.50
2019-04-25T15:52:13.078Z,17.50
2019-04-25T15:54:43.063Z,17.50
2019-04-25T15:57:13.219Z,17.50
2019-04-25T15:59:43.378Z,17.50
2019-04-25T16:02:14.467Z,17.40
2019-04-25T16:04:46.451Z,17.30
2019-04-25T16:07:17.903Z,17.20
2019-04-25T16:09:47.987Z,17.30
2019-04-25T16:12:19.243Z,17.20
2019-04-25T16:14:49.397Z,17.10
2019-04-25T16:17:19.543Z,17.10
2019-04-25T16:19:49.632Z,17.10
2019-04-25T16:22:19.751Z,17.00
2019-04-25T16:24:49.772Z,17.00
2019-04-25T16:27:19.955Z,16.90
2019-04-25T16:29:49.897Z,16.90
2019-04-25T16:32:21.699Z,16.90
2019-04-25T16:34:51.851Z,16.80
2019-04-25T16:37:22.258Z,16.80
2019-04-25T16:39:52.340Z,16.80
2019-04-25T16:42:22.325Z,16.80
2019-04-25T16:44:52.522Z,16.80
2019-04-25T16:47:24.073Z,16.80
2019-04-25T16:49:54.183Z,16.80
2019-04-25T16:52:24.987Z,16.80
2019-04-25T16:54:55.166Z,16.80
2019-04-25T16:57:25.326Z,16.80
2019-04-25T16:59:55.412Z,16.80
2019-04-25T17:02:35.532Z,16.70
2019-04-25T17:04:58.991Z,16.70
2019-04-25T17:07:30.386Z,16.60
2019-04-25T17:10:00.376Z,16.50
2019-04-25T17:12:31.158Z,16.40
2019-04-25T17:15:09.231Z,16.20
2019-04-25T17:17:40.962Z,16.30
2019-04-25T17:20:18.594Z,16.30
2019-04-25T17:22:48.675Z,16.30
2019-04-25T17:25:18.794Z,16.40
2019-04-25T17:27:48.879Z,16.40
2019-04-25T17:30:19.992Z,16.40
2019-04-25T17:33:09.503Z,16.40
2019-04-25T17:35:41.258Z,16.30
2019-04-25T17:38:19.550Z,16.20
2019-04-25T17:40:49.757Z,16.30
2019-04-25T17:43:19.819Z,16.30
2019-04-25T17:45:49.934Z,16.20
2019-04-25T17:48:20.042Z,16.20
2019-04-25T17:50:50.064Z,16.10
2019-04-25T17:53:20.031Z,16.20
2019-04-25T17:55:50.042Z,16.20
2019-04-25T17:58:21.558Z,16.20
2019-04-25T18:01:12.556Z,16.20
2019-04-25T18:03:42.679Z,16.20
2019-04-25T18:06:12.766Z,16.20
2019-04-25T18:08:42.743Z,16.20
2019-04-25T18:11:12.802Z,16.20
2019-04-25T18:13:42.920Z,16.20
2019-04-25T18:16:15.579Z,16.20
2019-04-25T18:18:53.374Z,16.10
2019-04-25T18:21:23.344Z,16.10
2019-04-25T18:24:03.711Z,16.20
2019-04-25T18:26:44.319Z,16.10
2019-04-25T18:29:21.695Z,16.10
2019-04-25T18:31:52.095Z,16.10
2019-04-25T18:34:36.003Z,16.10
2019-04-25T18:37:19.170Z,16.00
2019-04-25T18:40:07.195Z,16.00
2019-04-25T18:42:44.939Z,16.00
2019-04-25T18:45:16.691Z,15.90
2019-04-25T18:47:46.752Z,15.90
2019-04-25T18:50:18.470Z,15.80
2019-04-25T18:52:50.335Z,15.90
2019-04-25T18:55:27.726Z,15.90
2019-04-25T18:58:14.134Z,15.80
2019-04-25T19:01:01.787Z,15.90
2019-04-25T19:03:49.939Z,15.90
2019-04-25T19:06:21.700Z,15.90
2019-04-25T19:08:53.419Z,15.90
2019-04-25T19:11:23.665Z,15.80
2019-04-25T19:13:53.702Z,15.70
2019-04-25T19:16:23.636Z,15.80
2019-04-25T19:18:53.695Z,15.80
2019-04-25T19:21:23.626Z,15.80
2019-04-25T19:23:53.678Z,15.80
2019-04-25T19:26:23.618Z,15.70
2019-04-25T19:28:53.818Z,15.70
2019-04-25T19:31:24.055Z,15.60
2019-04-25T19:33:54.135Z,15.60
2019-04-25T19:36:24.190Z,15.70
2019-04-25T19:38:54.207Z,15.70
2019-04-25T19:41:28.267Z,15.70
2019-04-25T19:44:02.718Z,15.70
2019-04-25T19:46:43.390Z,15.60
2019-04-25T22:06:46.409Z,15.60
2019-04-25T22:09:19.344Z,15.60
2019-04-25T22:11:50.252Z,15.60
2019-04-25T22:14:21.092Z,15.60
2019-04-25T22:16:51.713Z,15.60
2019-04-25T22:19:22.764Z,15.60
2019-04-25T22:21:53.406Z,15.60
2019-04-25T22:24:30.135Z,15.60
2019-04-25T22:27:03.062Z,15.60
2019-04-25T22:29:35.063Z,15.60
2019-04-25T22:32:18.783Z,15.60
2019-04-25T22:35:03.901Z,15.60
2019-04-25T22:37:34.579Z,15.60
2019-04-25T22:40:06.181Z,15.70
2019-04-25T22:42:36.342Z,15.70
2019-04-25T22:45:07.971Z,15.70
2019-04-25T22:47:38.542Z,15.70
2019-04-25T22:50:08.838Z,15.60
2019-04-25T22:52:39.442Z,15.60
2019-04-25T22:55:09.534Z,15.60
2019-04-25T22:57:40.187Z,15.60
2019-04-25T23:00:12.687Z,15.60
2019-04-25T23:02:49.726Z,15.60
2019-04-25T23:05:27.619Z,15.60
2019-04-25T23:07:57.915Z,15.60
2019-04-25T23:10:28.453Z,15.60
2019-04-25T23:12:58.467Z,15.60
2019-04-25T23:15:28.587Z,15.70
2019-04-25T23:17:59.042Z,15.60
2019-04-25T23:20:29.066Z,15.60
2019-04-25T23:22:59.211Z,15.60
2019-04-25T23:25:30.789Z,15.60
2019-04-25T23:30:40.232Z,15.60
2019-04-25T23:33:10.607Z,15.60
2019-04-25T23:35:42.451Z,15.50
2019-04-25T23:38:14.543Z,15.60
2019-04-25T23:40:44.138Z,15.60
2019-04-25T23:43:14.531Z,15.60
2019-04-25T23:45:44.587Z,15.50
2019-04-25T23:48:15.038Z,15.50
2019-04-25T23:50:45.261Z,15.50
2019-04-25T23:53:15.557Z,15.40
2019-04-25T23:55:45.686Z,15.30
2019-04-25T23:58:15.758Z,15.40
